sensor_id;sensor_type;location;lat;lon;timestamp;P1;durP1;ratioP1;P2;durP2;ratioP2
32639;SDS011;19049;52.524;11.468;2023-07-28T00:00:27;3.70;;;3.40;;
32639;SDS011;19049;52.524;11.468;2023-07-28T00:02:53;4.27;;;3.67;;
32639;SDS011;19049;52.524;11.468;2023-07-28T00:05:18;3.23;;;2.93;;
32639;SDS011;19049;52.524;11.468;2023-07-28T00:07:44;5.37;;;3.90;;
32639;SDS011;19049;52.524;11.468;2023-07-28T00:10:10;4.93;;;4.00;;
32639;SDS011;19049;52.524;11.468;2023-07-28T00:12:36;4.97;;;3.47;;
32639;SDS011;19049;52.524;11.468;2023-07-28T00:15:02;4.83;;;3.77;;
32639;SDS011;19049;52.524;11.468;2023-07-28T00:17:28;4.90;;;4.40;;
32639;SDS011;19049;52.524;11.468;2023-07-28T00:19:53;5.93;;;4.07;;
32639;SDS011;19049;52.524;11.468;2023-07-28T00:22:19;4.50;;;4.10;;
32639;SDS011;19049;52.524;11.468;2023-07-28T00:24:45;6.00;;;5.40;;
32639;SDS011;19049;52.524;11.468;2023-07-28T00:27:11;6.33;;;4.87;;
32639;SDS011;19049;52.524;11.468;2023-07-28T00:29:39;4.80;;;4.30;;
32639;SDS011;19049;52.524;11.468;2023-07-28T00:32:06;4.93;;;4.53;;
32639;SDS011;19049;52.524;11.468;2023-07-28T00:34:32;5.77;;;4.50;;
32639;SDS011;19049;52.524;11.468;2023-07-28T00:36:58;5.20;;;4.63;;
32639;SDS011;19049;52.524;11.468;2023-07-28T00:39:23;5.37;;;4.87;;
32639;SDS011;19049;52.524;11.468;2023-07-28T00:41:49;5.67;;;5.17;;
32639;SDS011;19049;52.524;11.468;2023-07-28T00:44:15;5.97;;;5.40;;
32639;SDS011;19049;52.524;11.468;2023-07-28T00:46:42;7.37;;;6.27;;
32639;SDS011;19049;52.524;11.468;2023-07-28T00:49:09;7.60;;;5.27;;
32639;SDS011;19049;52.524;11.468;2023-07-28T00:51:35;6.30;;;5.70;;
32639;SDS011;19049;52.524;11.468;2023-07-28T00:54:01;6.07;;;5.30;;
32639;SDS011;19049;52.524;11.468;2023-07-28T00:56:29;6.40;;;5.80;;
32639;SDS011;19049;52.524;11.468;2023-07-28T00:58:55;6.87;;;6.20;;
32639;SDS011;19049;52.524;11.468;2023-07-28T01:01:21;6.77;;;6.07;;
32639;SDS011;19049;52.524;11.468;2023-07-28T01:03:47;7.73;;;6.50;;
32639;SDS011;19049;52.524;11.468;2023-07-28T01:09:14;6.60;;;5.60;;
32639;SDS011;19049;52.524;11.468;2023-07-28T01:11:56;7.00;;;6.33;;
32639;SDS011;19049;52.524;11.468;2023-07-28T01:14:23;8.10;;;6.37;;
32639;SDS011;19049;52.524;11.468;2023-07-28T01:16:50;7.17;;;5.73;;
32639;SDS011;19049;52.524;11.468;2023-07-28T01:19:16;6.93;;;6.33;;
32639;SDS011;19049;52.524;11.468;2023-07-28T01:21:43;6.13;;;5.27;;
32639;SDS011;19049;52.524;11.468;2023-07-28T01:24:20;6.80;;;6.20;;
32639;SDS011;19049;52.524;11.468;2023-07-28T01:26:53;8.50;;;6.30;;
32639;SDS011;19049;52.524;11.468;2023-07-28T01:29:19;6.67;;;5.83;;
32639;SDS011;19049;52.524;11.468;2023-07-28T01:31:47;6.60;;;5.90;;
32639;SDS011;19049;52.524;11.468;2023-07-28T01:34:13;6.60;;;6.00;;
32639;SDS011;19049;52.524;11.468;2023-07-28T01:36:39;7.40;;;6.70;;
32639;SDS011;19049;52.524;11.468;2023-07-28T01:39:05;6.57;;;5.97;;
32639;SDS011;19049;52.524;11.468;2023-07-28T01:41:31;7.33;;;6.63;;
32639;SDS011;19049;52.524;11.468;2023-07-28T01:43:57;6.23;;;5.73;;
32639;SDS011;19049;52.524;11.468;2023-07-28T01:46:23;6.63;;;5.93;;
32639;SDS011;19049;52.524;11.468;2023-07-28T01:48:49;7.13;;;6.43;;
32639;SDS011;19049;52.524;11.468;2023-07-28T01:51:14;7.50;;;6.70;;
32639;SDS011;19049;52.524;11.468;2023-07-28T01:53:40;7.00;;;6.40;;
32639;SDS011;19049;52.524;11.468;2023-07-28T01:56:06;10.50;;;7.40;;
32639;SDS011;19049;52.524;11.468;2023-07-28T01:58:31;8.33;;;6.50;;
32639;SDS011;19049;52.524;11.468;2023-07-28T02:00:57;6.17;;;5.57;;
32639;SDS011;19049;52.524;11.468;2023-07-28T02:03:23;7.60;;;6.00;;
32639;SDS011;19049;52.524;11.468;2023-07-28T02:05:49;7.20;;;6.50;;
32639;SDS011;19049;52.524;11.468;2023-07-28T02:08:14;5.97;;;5.47;;
32639;SDS011;19049;52.524;11.468;2023-07-28T02:10:40;8.17;;;6.47;;
32639;SDS011;19049;52.524;11.468;2023-07-28T02:13:06;7.20;;;6.50;;
32639;SDS011;19049;52.524;11.468;2023-07-28T02:15:32;7.17;;;6.47;;
32639;SDS011;19049;52.524;11.468;2023-07-28T02:17:58;6.10;;;5.43;;
32639;SDS011;19049;52.524;11.468;2023-07-28T02:20:23;5.03;;;4.63;;
32639;SDS011;19049;52.524;11.468;2023-07-28T02:22:49;7.20;;;5.70;;
32639;SDS011;19049;52.524;11.468;2023-07-28T02:25:15;5.90;;;5.40;;
32639;SDS011;19049;52.524;11.468;2023-07-28T02:27:41;7.17;;;5.27;;
32639;SDS011;19049;52.524;11.468;2023-07-28T02:30:07;5.47;;;4.97;;
32639;SDS011;19049;52.524;11.468;2023-07-28T02:32:33;6.00;;;5.50;;
32639;SDS011;19049;52.524;11.468;2023-07-28T02:34:59;6.90;;;6.07;;
32639;SDS011;19049;52.524;11.468;2023-07-28T02:37:25;5.07;;;4.67;;
32639;SDS011;19049;52.524;11.468;2023-07-28T02:39:51;5.77;;;5.27;;
32639;SDS011;19049;52.524;11.468;2023-07-28T02:42:17;6.37;;;5.77;;
32639;SDS011;19049;52.524;11.468;2023-07-28T02:44:43;5.60;;;5.10;;
32639;SDS011;19049;52.524;11.468;2023-07-28T02:47:08;5.53;;;5.03;;
32639;SDS011;19049;52.524;11.468;2023-07-28T02:49:34;5.60;;;5.03;;
32639;SDS011;19049;52.524;11.468;2023-07-28T02:52:00;5.77;;;5.17;;
32639;SDS011;19049;52.524;11.468;2023-07-28T02:54:28;5.57;;;5.07;;
32639;SDS011;19049;52.524;11.468;2023-07-28T02:56:53;6.93;;;6.07;;
32639;SDS011;19049;52.524;11.468;2023-07-28T02:59:20;5.70;;;5.07;;
32639;SDS011;19049;52.524;11.468;2023-07-28T03:01:46;6.13;;;5.27;;
32639;SDS011;19049;52.524;11.468;2023-07-28T03:04:12;6.03;;;5.50;;
32639;SDS011;19049;52.524;11.468;2023-07-28T03:06:37;5.23;;;4.77;;
32639;SDS011;19049;52.524;11.468;2023-07-28T03:09:03;5.57;;;5.07;;
32639;SDS011;19049;52.524;11.468;2023-07-28T03:11:29;5.37;;;4.87;;
32639;SDS011;19049;52.524;11.468;2023-07-28T03:13:55;6.47;;;4.83;;
32639;SDS011;19049;52.524;11.468;2023-07-28T03:16:21;5.97;;;5.37;;
32639;SDS011;19049;52.524;11.468;2023-07-28T03:18:47;6.67;;;5.43;;
32639;SDS011;19049;52.524;11.468;2023-07-28T03:21:12;5.30;;;4.83;;
32639;SDS011;19049;52.524;11.468;2023-07-28T03:23:38;5.50;;;5.00;;
32639;SDS011;19049;52.524;11.468;2023-07-28T03:26:04;4.50;;;4.10;;
32639;SDS011;19049;52.524;11.468;2023-07-28T03:28:30;4.97;;;4.57;;
32639;SDS011;19049;52.524;11.468;2023-07-28T03:30:56;4.20;;;3.90;;
32639;SDS011;19049;52.524;11.468;2023-07-28T03:33:21;4.83;;;4.43;;
32639;SDS011;19049;52.524;11.468;2023-07-28T03:35:47;4.60;;;4.20;;
32639;SDS011;19049;52.524;11.468;2023-07-28T03:38:13;6.13;;;4.30;;
32639;SDS011;19049;52.524;11.468;2023-07-28T03:40:39;5.13;;;3.90;;
32639;SDS011;19049;52.524;11.468;2023-07-28T03:43:04;5.30;;;4.63;;
32639;SDS011;19049;52.524;11.468;2023-07-28T03:45:30;6.10;;;4.23;;
32639;SDS011;19049;52.524;11.468;2023-07-28T03:47:56;4.70;;;4.30;;
32639;SDS011;19049;52.524;11.468;2023-07-28T03:50:22;4.03;;;3.50;;
32639;SDS011;19049;52.524;11.468;2023-07-28T03:52:51;5.37;;;4.43;;
32639;SDS011;19049;52.524;11.468;2023-07-28T03:55:17;3.73;;;3.43;;
32639;SDS011;19049;52.524;11.468;2023-07-28T03:57:43;4.37;;;4.07;;
32639;SDS011;19049;52.524;11.468;2023-07-28T04:00:09;5.53;;;3.83;;
32639;SDS011;19049;52.524;11.468;2023-07-28T04:02:35;3.40;;;3.20;;
32639;SDS011;19049;52.524;11.468;2023-07-28T04:05:01;3.47;;;3.23;;
32639;SDS011;19049;52.524;11.468;2023-07-28T04:07:27;4.07;;;3.77;;
32639;SDS011;19049;52.524;11.468;2023-07-28T04:09:53;4.20;;;3.80;;
32639;SDS011;19049;52.524;11.468;2023-07-28T04:12:18;4.23;;;3.93;;
32639;SDS011;19049;52.524;11.468;2023-07-28T04:14:44;4.37;;;3.97;;
32639;SDS011;19049;52.524;11.468;2023-07-28T04:17:10;3.93;;;3.53;;
32639;SDS011;19049;52.524;11.468;2023-07-28T04:19:36;4.20;;;3.80;;
32639;SDS011;19049;52.524;11.468;2023-07-28T04:22:03;4.30;;;4.00;;
32639;SDS011;19049;52.524;11.468;2023-07-28T04:24:29;4.50;;;4.10;;
32639;SDS011;19049;52.524;11.468;2023-07-28T04:26:54;4.97;;;4.57;;
32639;SDS011;19049;52.524;11.468;2023-07-28T04:29:20;4.70;;;4.30;;
32639;SDS011;19049;52.524;11.468;2023-07-28T04:31:46;5.17;;;4.20;;
32639;SDS011;19049;52.524;11.468;2023-07-28T04:34:12;4.83;;;4.43;;
32639;SDS011;19049;52.524;11.468;2023-07-28T04:36:38;4.27;;;3.87;;
32639;SDS011;19049;52.524;11.468;2023-07-28T04:39:04;4.70;;;4.30;;
32639;SDS011;19049;52.524;11.468;2023-07-28T04:41:30;4.27;;;3.90;;
32639;SDS011;19049;52.524;11.468;2023-07-28T04:43:56;3.73;;;3.43;;
32639;SDS011;19049;52.524;11.468;2023-07-28T04:46:22;4.77;;;4.20;;
32639;SDS011;19049;52.524;11.468;2023-07-28T04:48:48;4.50;;;4.10;;
32639;SDS011;19049;52.524;11.468;2023-07-28T04:51:14;3.47;;;3.23;;
32639;SDS011;19049;52.524;11.468;2023-07-28T04:53:41;4.53;;;3.63;;
32639;SDS011;19049;52.524;11.468;2023-07-28T04:56:07;4.23;;;3.83;;
32639;SDS011;19049;52.524;11.468;2023-07-28T04:58:33;3.90;;;3.60;;
32639;SDS011;19049;52.524;11.468;2023-07-28T05:00:59;3.60;;;3.30;;
32639;SDS011;19049;52.524;11.468;2023-07-28T05:03:26;4.27;;;3.33;;
32639;SDS011;19049;52.524;11.468;2023-07-28T05:05:52;3.63;;;3.33;;
32639;SDS011;19049;52.524;11.468;2023-07-28T05:08:18;3.40;;;3.10;;
32639;SDS011;19049;52.524;11.468;2023-07-28T05:10:44;3.57;;;3.27;;
32639;SDS011;19049;52.524;11.468;2023-07-28T05:13:10;3.63;;;3.00;;
32639;SDS011;19049;52.524;11.468;2023-07-28T05:15:36;2.80;;;2.60;;
32639;SDS011;19049;52.524;11.468;2023-07-28T05:18:02;3.40;;;3.10;;
32639;SDS011;19049;52.524;11.468;2023-07-28T05:20:28;3.30;;;3.00;;
32639;SDS011;19049;52.524;11.468;2023-07-28T05:22:54;3.30;;;3.00;;
32639;SDS011;19049;52.524;11.468;2023-07-28T05:25:20;3.60;;;3.30;;
32639;SDS011;19049;52.524;11.468;2023-07-28T05:27:47;3.50;;;3.20;;
32639;SDS011;19049;52.524;11.468;2023-07-28T05:30:13;3.47;;;2.90;;
32639;SDS011;19049;52.524;11.468;2023-07-28T05:32:39;3.20;;;2.90;;
32639;SDS011;19049;52.524;11.468;2023-07-28T05:35:05;2.77;;;2.57;;
32639;SDS011;19049;52.524;11.468;2023-07-28T05:37:31;3.20;;;2.90;;
32639;SDS011;19049;52.524;11.468;2023-07-28T05:39:57;2.80;;;2.60;;
32639;SDS011;19049;52.524;11.468;2023-07-28T05:42:23;4.30;;;3.40;;
32639;SDS011;19049;52.524;11.468;2023-07-28T05:44:49;3.50;;;3.20;;
32639;SDS011;19049;52.524;11.468;2023-07-28T05:47:17;3.50;;;3.20;;
32639;SDS011;19049;52.524;11.468;2023-07-28T05:49:44;5.30;;;2.70;;
32639;SDS011;19049;52.524;11.468;2023-07-28T05:52:10;3.73;;;3.43;;
32639;SDS011;19049;52.524;11.468;2023-07-28T05:54:36;3.00;;;2.67;;
32639;SDS011;19049;52.524;11.468;2023-07-28T05:57:02;3.40;;;3.10;;
32639;SDS011;19049;52.524;11.468;2023-07-28T05:59:28;3.73;;;3.43;;
32639;SDS011;19049;52.524;11.468;2023-07-28T06:01:54;3.47;;;3.17;;
32639;SDS011;19049;52.524;11.468;2023-07-28T06:04:20;3.30;;;3.00;;
32639;SDS011;19049;52.524;11.468;2023-07-28T06:06:46;3.67;;;2.77;;
32639;SDS011;19049;52.524;11.468;2023-07-28T06:09:12;2.53;;;2.33;;
32639;SDS011;19049;52.524;11.468;2023-07-28T06:11:39;3.90;;;2.90;;
32639;SDS011;19049;52.524;11.468;2023-07-28T06:14:05;2.40;;;2.20;;
32639;SDS011;19049;52.524;11.468;2023-07-28T06:16:31;2.87;;;2.67;;
32639;SDS011;19049;52.524;11.468;2023-07-28T06:18:57;2.57;;;2.37;;
32639;SDS011;19049;52.524;11.468;2023-07-28T06:21:23;4.67;;;2.57;;
32639;SDS011;19049;52.524;11.468;2023-07-28T06:23:49;2.53;;;2.33;;
32639;SDS011;19049;52.524;11.468;2023-07-28T06:26:15;1.90;;;1.80;;
32639;SDS011;19049;52.524;11.468;2023-07-28T06:28:41;2.10;;;2.00;;
32639;SDS011;19049;52.524;11.468;2023-07-28T06:31:07;2.33;;;2.13;;
32639;SDS011;19049;52.524;11.468;2023-07-28T06:33:34;2.37;;;1.90;;
32639;SDS011;19049;52.524;11.468;2023-07-28T06:36:01;2.23;;;2.03;;
32639;SDS011;19049;52.524;11.468;2023-07-28T06:38:27;2.47;;;2.27;;
32639;SDS011;19049;52.524;11.468;2023-07-28T06:40:53;4.20;;;2.63;;
32639;SDS011;19049;52.524;11.468;2023-07-28T06:43:20;2.90;;;2.70;;
32639;SDS011;19049;52.524;11.468;2023-07-28T06:45:46;3.70;;;2.70;;
32639;SDS011;19049;52.524;11.468;2023-07-28T06:48:12;3.53;;;2.83;;
32639;SDS011;19049;52.524;11.468;2023-07-28T06:50:38;3.30;;;2.87;;
32639;SDS011;19049;52.524;11.468;2023-07-28T06:53:04;3.40;;;3.07;;
32639;SDS011;19049;52.524;11.468;2023-07-28T06:55:30;3.07;;;2.87;;
32639;SDS011;19049;52.524;11.468;2023-07-28T06:57:56;3.20;;;2.90;;
32639;SDS011;19049;52.524;11.468;2023-07-28T07:00:21;2.60;;;2.40;;
32639;SDS011;19049;52.524;11.468;2023-07-28T07:02:48;2.87;;;2.17;;
32639;SDS011;19049;52.524;11.468;2023-07-28T07:05:13;2.30;;;2.10;;
32639;SDS011;19049;52.524;11.468;2023-07-28T07:07:40;2.40;;;2.20;;
32639;SDS011;19049;52.524;11.468;2023-07-28T07:10:06;3.17;;;2.87;;
32639;SDS011;19049;52.524;11.468;2023-07-28T07:12:32;4.20;;;2.40;;
32639;SDS011;19049;52.524;11.468;2023-07-28T07:14:58;2.77;;;2.17;;
32639;SDS011;19049;52.524;11.468;2023-07-28T07:17:24;2.77;;;2.50;;
32639;SDS011;19049;52.524;11.468;2023-07-28T07:19:49;2.43;;;2.20;;
32639;SDS011;19049;52.524;11.468;2023-07-28T07:22:15;2.47;;;2.20;;
32639;SDS011;19049;52.524;11.468;2023-07-28T07:24:41;2.30;;;2.10;;
32639;SDS011;19049;52.524;11.468;2023-07-28T07:27:07;4.57;;;2.40;;
32639;SDS011;19049;52.524;11.468;2023-07-28T07:29:36;2.23;;;2.03;;
32639;SDS011;19049;52.524;11.468;2023-07-28T07:32:05;2.33;;;2.13;;
32639;SDS011;19049;52.524;11.468;2023-07-28T07:34:31;2.20;;;2.00;;
32639;SDS011;19049;52.524;11.468;2023-07-28T07:36:57;2.80;;;2.40;;
32639;SDS011;19049;52.524;11.468;2023-07-28T07:39:23;2.43;;;2.23;;
32639;SDS011;19049;52.524;11.468;2023-07-28T07:41:49;2.10;;;1.90;;
32639;SDS011;19049;52.524;11.468;2023-07-28T07:44:15;2.17;;;1.83;;
32639;SDS011;19049;52.524;11.468;2023-07-28T07:46:40;2.20;;;2.07;;
32639;SDS011;19049;52.524;11.468;2023-07-28T07:49:06;2.67;;;2.23;;
32639;SDS011;19049;52.524;11.468;2023-07-28T07:51:33;2.60;;;2.40;;
32639;SDS011;19049;52.524;11.468;2023-07-28T07:53:59;2.40;;;2.20;;
32639;SDS011;19049;52.524;11.468;2023-07-28T07:56:26;2.53;;;2.30;;
32639;SDS011;19049;52.524;11.468;2023-07-28T07:58:52;2.60;;;2.40;;
32639;SDS011;19049;52.524;11.468;2023-07-28T08:01:18;3.07;;;2.80;;
32639;SDS011;19049;52.524;11.468;2023-07-28T08:03:44;2.27;;;2.07;;
32639;SDS011;19049;52.524;11.468;2023-07-28T08:06:09;3.03;;;2.40;;
32639;SDS011;19049;52.524;11.468;2023-07-28T08:08:37;2.80;;;2.60;;
32639;SDS011;19049;52.524;11.468;2023-07-28T08:11:03;2.50;;;2.30;;
32639;SDS011;19049;52.524;11.468;2023-07-28T08:13:29;3.53;;;2.43;;
32639;SDS011;19049;52.524;11.468;2023-07-28T08:15:54;2.83;;;2.30;;
32639;SDS011;19049;52.524;11.468;2023-07-28T08:18:20;2.90;;;2.70;;
32639;SDS011;19049;52.524;11.468;2023-07-28T08:20:46;3.37;;;3.03;;
32639;SDS011;19049;52.524;11.468;2023-07-28T08:23:11;3.60;;;3.10;;
32639;SDS011;19049;52.524;11.468;2023-07-28T08:25:37;2.93;;;2.73;;
32639;SDS011;19049;52.524;11.468;2023-07-28T08:28:03;2.80;;;2.60;;
32639;SDS011;19049;52.524;11.468;2023-07-28T08:30:29;3.20;;;2.90;;
32639;SDS011;19049;52.524;11.468;2023-07-28T08:32:56;3.00;;;2.70;;
32639;SDS011;19049;52.524;11.468;2023-07-28T08:35:22;2.87;;;2.67;;
32639;SDS011;19049;52.524;11.468;2023-07-28T08:37:48;2.53;;;2.33;;
32639;SDS011;19049;52.524;11.468;2023-07-28T08:40:13;3.07;;;2.77;;
32639;SDS011;19049;52.524;11.468;2023-07-28T08:42:39;2.50;;;2.30;;
32639;SDS011;19049;52.524;11.468;2023-07-28T08:45:06;2.93;;;2.73;;
32639;SDS011;19049;52.524;11.468;2023-07-28T08:47:33;3.40;;;3.10;;
32639;SDS011;19049;52.524;11.468;2023-07-28T08:49:59;3.37;;;3.07;;
32639;SDS011;19049;52.524;11.468;2023-07-28T08:52:26;2.80;;;2.60;;
32639;SDS011;19049;52.524;11.468;2023-07-28T08:54:52;3.63;;;2.70;;
32639;SDS011;19049;52.524;11.468;2023-07-28T08:57:18;3.13;;;2.80;;
32639;SDS011;19049;52.524;11.468;2023-07-28T08:59:45;3.40;;;3.10;;
32639;SDS011;19049;52.524;11.468;2023-07-28T09:02:15;3.40;;;3.10;;
32639;SDS011;19049;52.524;11.468;2023-07-28T09:04:42;3.70;;;3.40;;
32639;SDS011;19049;52.524;11.468;2023-07-28T09:07:08;3.57;;;3.20;;
32639;SDS011;19049;52.524;11.468;2023-07-28T09:09:34;3.47;;;3.17;;
32639;SDS011;19049;52.524;11.468;2023-07-28T09:12:02;3.37;;;2.90;;
32639;SDS011;19049;52.524;11.468;2023-07-28T09:14:29;4.20;;;3.10;;
32639;SDS011;19049;52.524;11.468;2023-07-28T09:16:55;4.10;;;3.70;;
32639;SDS011;19049;52.524;11.468;2023-07-28T09:19:24;4.57;;;3.70;;
32639;SDS011;19049;52.524;11.468;2023-07-28T09:21:57;3.47;;;3.27;;
32639;SDS011;19049;52.524;11.468;2023-07-28T09:24:28;4.27;;;3.80;;
32639;SDS011;19049;52.524;11.468;2023-07-28T09:26:58;4.13;;;3.83;;
32639;SDS011;19049;52.524;11.468;2023-07-28T09:29:25;4.10;;;3.80;;
32639;SDS011;19049;52.524;11.468;2023-07-28T09:32:02;4.03;;;3.63;;
32639;SDS011;19049;52.524;11.468;2023-07-28T09:34:29;3.93;;;3.63;;
32639;SDS011;19049;52.524;11.468;2023-07-28T09:36:56;4.00;;;3.70;;
32639;SDS011;19049;52.524;11.468;2023-07-28T09:39:22;4.63;;;3.70;;
32639;SDS011;19049;52.524;11.468;2023-07-28T09:41:49;3.53;;;3.23;;
32639;SDS011;19049;52.524;11.468;2023-07-28T09:44:15;3.97;;;3.63;;
32639;SDS011;19049;52.524;11.468;2023-07-28T09:46:54;4.00;;;3.70;;
32639;SDS011;19049;52.524;11.468;2023-07-28T09:49:28;3.60;;;3.30;;
32639;SDS011;19049;52.524;11.468;2023-07-28T09:52:03;3.90;;;3.50;;
32639;SDS011;19049;52.524;11.468;2023-07-28T09:54:30;3.00;;;2.70;;
32639;SDS011;19049;52.524;11.468;2023-07-28T09:57:01;3.27;;;3.07;;
32639;SDS011;19049;52.524;11.468;2023-07-28T09:59:31;2.90;;;2.70;;
32639;SDS011;19049;52.524;11.468;2023-07-28T10:02:00;3.07;;;2.87;;
32639;SDS011;19049;52.524;11.468;2023-07-28T10:04:27;3.10;;;2.53;;
32639;SDS011;19049;52.524;11.468;2023-07-28T10:06:54;2.50;;;2.30;;
32639;SDS011;19049;52.524;11.468;2023-07-28T10:09:22;2.60;;;2.40;;
32639;SDS011;19049;52.524;11.468;2023-07-28T10:11:52;3.13;;;2.50;;
32639;SDS011;19049;52.524;11.468;2023-07-28T10:14:51;2.80;;;2.60;;
32639;SDS011;19049;52.524;11.468;2023-07-28T10:17:15;2.70;;;2.50;;
32639;SDS011;19049;52.524;11.468;2023-07-28T10:19:42;3.13;;;2.83;;
32639;SDS011;19049;52.524;11.468;2023-07-28T10:22:11;2.70;;;2.50;;
32639;SDS011;19049;52.524;11.468;2023-07-28T10:24:49;2.73;;;2.40;;
32639;SDS011;19049;52.524;11.468;2023-07-28T10:27:30;3.63;;;1.93;;
32639;SDS011;19049;52.524;11.468;2023-07-28T10:30:00;2.60;;;2.40;;
32639;SDS011;19049;52.524;11.468;2023-07-28T10:32:28;2.00;;;1.90;;
32639;SDS011;19049;52.524;11.468;2023-07-28T10:34:58;2.80;;;2.60;;
32639;SDS011;19049;52.524;11.468;2023-07-28T10:37:25;3.10;;;2.57;;
32639;SDS011;19049;52.524;11.468;2023-07-28T10:40:21;2.50;;;2.30;;
32639;SDS011;19049;52.524;11.468;2023-07-28T10:42:49;2.77;;;2.47;;
32639;SDS011;19049;52.524;11.468;2023-07-28T10:45:16;2.10;;;2.00;;
32639;SDS011;19049;52.524;11.468;2023-07-28T10:47:42;5.27;;;2.67;;
32639;SDS011;19049;52.524;11.468;2023-07-28T10:50:09;3.30;;;2.80;;
32639;SDS011;19049;52.524;11.468;2023-07-28T10:52:44;3.73;;;3.43;;
32639;SDS011;19049;52.524;11.468;2023-07-28T10:55:22;4.07;;;3.77;;
32639;SDS011;19049;52.524;11.468;2023-07-28T10:57:49;5.17;;;4.77;;
32639;SDS011;19049;52.524;11.468;2023-07-28T11:00:18;5.80;;;5.20;;
32639;SDS011;19049;52.524;11.468;2023-07-28T11:02:47;5.67;;;5.17;;
32639;SDS011;19049;52.524;11.468;2023-07-28T11:05:18;5.30;;;4.80;;
32639;SDS011;19049;52.524;11.468;2023-07-28T11:07:48;5.40;;;4.83;;
32639;SDS011;19049;52.524;11.468;2023-07-28T11:10:15;4.83;;;4.43;;
32639;SDS011;19049;52.524;11.468;2023-07-28T11:12:45;5.67;;;5.00;;
32639;SDS011;19049;52.524;11.468;2023-07-28T11:15:13;5.20;;;4.70;;
32639;SDS011;19049;52.524;11.468;2023-07-28T11:17:40;5.67;;;5.17;;
32639;SDS011;19049;52.524;11.468;2023-07-28T11:20:22;5.53;;;5.03;;
32639;SDS011;19049;52.524;11.468;2023-07-28T11:25:19;4.80;;;4.40;;
32639;SDS011;19049;52.524;11.468;2023-07-28T11:27:46;5.00;;;4.60;;
32639;SDS011;19049;52.524;11.468;2023-07-28T11:30:14;5.63;;;4.30;;
32639;SDS011;19049;52.524;11.468;2023-07-28T11:32:44;5.20;;;4.77;;
32639;SDS011;19049;52.524;11.468;2023-07-28T11:35:20;5.10;;;4.43;;
32639;SDS011;19049;52.524;11.468;2023-07-28T11:37:48;4.90;;;4.47;;
32639;SDS011;19049;52.524;11.468;2023-07-28T11:40:16;4.77;;;4.37;;
32639;SDS011;19049;52.524;11.468;2023-07-28T11:42:45;4.70;;;4.30;;
32639;SDS011;19049;52.524;11.468;2023-07-28T11:45:12;4.67;;;4.17;;
32639;SDS011;19049;52.524;11.468;2023-07-28T11:47:39;4.30;;;3.90;;
32639;SDS011;19049;52.524;11.468;2023-07-28T11:50:05;6.33;;;4.17;;
32639;SDS011;19049;52.524;11.468;2023-07-28T11:52:32;3.63;;;3.33;;
32639;SDS011;19049;52.524;11.468;2023-07-28T11:55:00;4.60;;;3.40;;
32639;SDS011;19049;52.524;11.468;2023-07-28T11:57:26;3.93;;;3.63;;
32639;SDS011;19049;52.524;11.468;2023-07-28T11:59:53;3.43;;;3.03;;
32639;SDS011;19049;52.524;11.468;2023-07-28T12:02:26;3.77;;;3.47;;
32639;SDS011;19049;52.524;11.468;2023-07-28T12:04:52;3.30;;;3.10;;
32639;SDS011;19049;52.524;11.468;2023-07-28T12:07:19;2.90;;;2.70;;
32639;SDS011;19049;52.524;11.468;2023-07-28T12:12:25;3.20;;;2.90;;
32639;SDS011;19049;52.524;11.468;2023-07-28T12:14:54;2.80;;;2.60;;
32639;SDS011;19049;52.524;11.468;2023-07-28T12:17:21;2.97;;;2.77;;
32639;SDS011;19049;52.524;11.468;2023-07-28T12:20:01;3.00;;;2.73;;
32639;SDS011;19049;52.524;11.468;2023-07-28T12:22:40;2.80;;;2.60;;
32639;SDS011;19049;52.524;11.468;2023-07-28T12:25:07;2.70;;;2.50;;
32639;SDS011;19049;52.524;11.468;2023-07-28T12:27:33;2.60;;;2.40;;
32639;SDS011;19049;52.524;11.468;2023-07-28T12:29:59;2.97;;;2.77;;
32639;SDS011;19049;52.524;11.468;2023-07-28T12:32:26;2.47;;;2.00;;
32639;SDS011;19049;52.524;11.468;2023-07-28T12:34:52;2.50;;;2.30;;
32639;SDS011;19049;52.524;11.468;2023-07-28T12:37:18;2.37;;;2.23;;
32639;SDS011;19049;52.524;11.468;2023-07-28T12:39:44;2.47;;;2.27;;
32639;SDS011;19049;52.524;11.468;2023-07-28T12:42:10;2.47;;;2.33;;
32639;SDS011;19049;52.524;11.468;2023-07-28T12:44:37;2.20;;;2.10;;
32639;SDS011;19049;52.524;11.468;2023-07-28T12:47:03;2.00;;;1.90;;
32639;SDS011;19049;52.524;11.468;2023-07-28T12:49:29;2.63;;;2.43;;
32639;SDS011;19049;52.524;11.468;2023-07-28T12:51:56;2.63;;;2.43;;
32639;SDS011;19049;52.524;11.468;2023-07-28T12:54:25;3.37;;;2.70;;
32639;SDS011;19049;52.524;11.468;2023-07-28T12:56:53;2.10;;;2.00;;
32639;SDS011;19049;52.524;11.468;2023-07-28T12:59:20;5.37;;;2.20;;
32639;SDS011;19049;52.524;11.468;2023-07-28T13:01:46;2.10;;;2.00;;
32639;SDS011;19049;52.524;11.468;2023-07-28T13:04:12;2.40;;;2.20;;
32639;SDS011;19049;52.524;11.468;2023-07-28T13:06:38;3.93;;;2.30;;
32639;SDS011;19049;52.524;11.468;2023-07-28T13:09:05;5.13;;;2.40;;
32639;SDS011;19049;52.524;11.468;2023-07-28T13:11:33;2.10;;;2.00;;
32639;SDS011;19049;52.524;11.468;2023-07-28T13:13:58;2.17;;;2.07;;
32639;SDS011;19049;52.524;11.468;2023-07-28T13:16:25;2.40;;;2.20;;
32639;SDS011;19049;52.524;11.468;2023-07-28T13:18:51;2.30;;;2.10;;
32639;SDS011;19049;52.524;11.468;2023-07-28T13:21:17;5.10;;;1.90;;
32639;SDS011;19049;52.524;11.468;2023-07-28T13:23:43;2.03;;;1.90;;
32639;SDS011;19049;52.524;11.468;2023-07-28T13:26:09;3.50;;;2.30;;
32639;SDS011;19049;52.524;11.468;2023-07-28T13:28:34;2.20;;;2.00;;
32639;SDS011;19049;52.524;11.468;2023-07-28T13:31:03;2.13;;;2.03;;
32639;SDS011;19049;52.524;11.468;2023-07-28T13:33:29;2.60;;;2.40;;
32639;SDS011;19049;52.524;11.468;2023-07-28T13:35:55;3.57;;;3.10;;
32639;SDS011;19049;52.524;11.468;2023-07-28T13:38:21;3.50;;;3.20;;
32639;SDS011;19049;52.524;11.468;2023-07-28T13:40:47;3.37;;;3.00;;
32639;SDS011;19049;52.524;11.468;2023-07-28T13:43:13;2.87;;;2.67;;
32639;SDS011;19049;52.524;11.468;2023-07-28T13:45:38;2.30;;;2.10;;
32639;SDS011;19049;52.524;11.468;2023-07-28T13:48:04;3.00;;;2.63;;
32639;SDS011;19049;52.524;11.468;2023-07-28T13:50:31;2.30;;;2.20;;
32639;SDS011;19049;52.524;11.468;2023-07-28T13:52:57;2.63;;;2.43;;
32639;SDS011;19049;52.524;11.468;2023-07-28T13:55:23;2.80;;;2.60;;
32639;SDS011;19049;52.524;11.468;2023-07-28T13:57:48;2.70;;;2.43;;
32639;SDS011;19049;52.524;11.468;2023-07-28T14:00:14;2.53;;;2.33;;
32639;SDS011;19049;52.524;11.468;2023-07-28T14:02:40;2.40;;;2.20;;
32639;SDS011;19049;52.524;11.468;2023-07-28T14:05:06;2.47;;;2.27;;
32639;SDS011;19049;52.524;11.468;2023-07-28T14:07:33;2.83;;;2.40;;
32639;SDS011;19049;52.524;11.468;2023-07-28T14:10:00;3.50;;;3.17;;
32639;SDS011;19049;52.524;11.468;2023-07-28T14:12:26;3.07;;;2.87;;
32639;SDS011;19049;52.524;11.468;2023-07-28T14:14:52;3.13;;;2.60;;
32639;SDS011;19049;52.524;11.468;2023-07-28T14:17:17;2.33;;;2.13;;
32639;SDS011;19049;52.524;11.468;2023-07-28T14:19:43;2.30;;;2.10;;
32639;SDS011;19049;52.524;11.468;2023-07-28T14:22:09;2.00;;;1.80;;
32639;SDS011;19049;52.524;11.468;2023-07-28T14:24:35;2.93;;;2.13;;
32639;SDS011;19049;52.524;11.468;2023-07-28T14:27:01;2.23;;;2.10;;
32639;SDS011;19049;52.524;11.468;2023-07-28T14:29:26;2.50;;;2.30;;
32639;SDS011;19049;52.524;11.468;2023-07-28T14:31:52;3.60;;;2.67;;
32639;SDS011;19049;52.524;11.468;2023-07-28T14:34:18;2.67;;;2.47;;
32639;SDS011;19049;52.524;11.468;2023-07-28T14:36:44;2.97;;;2.77;;
32639;SDS011;19049;52.524;11.468;2023-07-28T14:39:10;2.93;;;2.73;;